createdAt,value
2023-02-06T00:00:03.256Z,1010.16
2023-02-06T00:05:03.020Z,1010.23
2023-02-06T00:10:02.959Z,1010.27
2023-02-06T00:15:04.070Z,1010.24
2023-02-06T00:20:03.070Z,1010.21
2023-02-06T00:25:02.975Z,1010.27
2023-02-06T00:30:03.008Z,1010.22
2023-02-06T00:35:02.977Z,1010.27
2023-02-06T00:40:03.134Z,1010.36
2023-02-06T00:45:03.098Z,1010.5
2023-02-06T00:50:03.400Z,1010.59
2023-02-06T00:55:02.953Z,1010.66
2023-02-06T01:00:03.084Z,1010.72
2023-02-06T01:05:03.029Z,1010.81
2023-02-06T01:10:03.142Z,1010.88
2023-02-06T01:15:03.068Z,1010.97
2023-02-06T01:20:03.073Z,1011.02
2023-02-06T01:25:02.938Z,1011.12
2023-02-06T01:30:03.069Z,1011.16
2023-02-06T01:35:03.995Z,1011.2
2023-02-06T01:40:03.312Z,1011.27
2023-02-06T01:45:02.901Z,1011.21
2023-02-06T01:50:02.989Z,1011.23
2023-02-06T01:55:02.978Z,1011.27
2023-02-06T02:00:03.010Z,1011.28
2023-02-06T02:05:02.991Z,1011.33
2023-02-06T02:10:03.021Z,1011.4
2023-02-06T02:15:03.071Z,1011.39
2023-02-06T02:20:03.055Z,1011.35
2023-02-06T02:25:02.976Z,1011.4
2023-02-06T02:30:03.001Z,1011.38
2023-02-06T02:35:03.028Z,1011.37
2023-02-06T02:40:03.057Z,1011.4
2023-02-06T02:45:03.995Z,1011.42
2023-02-06T02:50:03.110Z,1011.33
2023-02-06T02:55:03.018Z,1011.35
2023-02-06T03:00:03.079Z,1011.41
2023-02-06T03:05:02.926Z,1011.41
2023-02-06T03:10:03.006Z,1011.4
2023-02-06T03:15:02.919Z,1011.43
2023-02-06T03:20:03.166Z,1011.42
2023-02-06T03:25:02.875Z,1011.46
2023-02-06T03:30:03.048Z,1011.47
2023-02-06T03:35:04.281Z,1011.47
2023-02-06T03:40:03.167Z,1011.49
2023-02-06T03:45:02.917Z,1011.48
2023-02-06T03:50:03.100Z,1011.4
2023-02-06T03:55:02.920Z,1011.38
2023-02-06T04:00:02.971Z,1011.36
2023-02-06T04:05:02.966Z,1011.25
2023-02-06T04:10:03.624Z,1011.2
2023-02-06T04:15:03.136Z,1011.12
2023-02-06T04:20:02.958Z,1011.11
2023-02-06T04:25:02.960Z,1011.05
2023-02-06T04:30:03.137Z,1011.04
2023-02-06T04:35:02.848Z,1011.02
2023-02-06T04:40:02.976Z,1010.98
2023-02-06T04:45:02.878Z,1010.99
2023-02-06T04:50:02.997Z,1010.97
2023-02-06T04:55:03.092Z,1010.98
2023-02-06T05:00:03.064Z,1010.98
2023-02-06T05:05:02.975Z,1010.94
2023-02-06T05:10:03.042Z,1010.98
2023-02-06T05:15:02.938Z,1010.91
2023-02-06T05:20:03.078Z,1010.99
2023-02-06T05:25:02.916Z,1010.95
2023-02-06T05:30:03.178Z,1011.0
2023-02-06T05:35:02.932Z,1011.0
2023-02-06T05:40:03.009Z,1011.04
2023-02-06T05:45:03.084Z,1011.06
2023-02-06T05:50:03.217Z,1011.04
2023-02-06T05:55:03.090Z,1011.11
2023-02-06T06:00:03.008Z,1011.02
2023-02-06T06:05:03.025Z,1010.96
2023-02-06T06:10:03.076Z,1010.95
2023-02-06T06:15:02.880Z,1010.95
2023-02-06T06:20:03.012Z,1010.95
2023-02-06T06:25:02.885Z,1010.95
2023-02-06T06:30:03.228Z,1010.9
2023-02-06T06:35:02.931Z,1010.87
2023-02-06T06:40:03.031Z,1010.85
2023-02-06T06:45:02.908Z,1010.82
2023-02-06T06:50:03.031Z,1010.85
2023-02-06T06:55:03.007Z,1010.86
2023-02-06T07:00:02.966Z,1010.81
2023-02-06T07:05:03.048Z,1010.85
2023-02-06T07:10:03.059Z,1010.91
2023-02-06T07:15:02.956Z,1010.88
2023-02-06T07:20:02.989Z,1010.87
2023-02-06T07:25:02.924Z,1010.81
2023-02-06T07:30:04.991Z,1010.8
2023-02-06T07:35:03.053Z,1010.85
2023-02-06T07:40:03.047Z,1010.87
2023-02-06T07:45:02.928Z,1010.85
2023-02-06T07:50:03.043Z,1010.96
2023-02-06T07:55:02.956Z,1011.01
2023-02-06T08:00:02.987Z,1011.03
2023-02-06T08:05:03.083Z,1011.03
2023-02-06T08:10:03.005Z,1011.05
2023-02-06T08:15:02.981Z,1011.15
2023-02-06T08:20:03.025Z,1011.13
2023-02-06T08:25:02.949Z,1011.15
2023-02-06T08:30:02.877Z,1011.11
2023-02-06T08:35:02.924Z,1011.18
2023-02-06T08:40:02.967Z,1011.21
2023-02-06T08:45:02.959Z,1011.26
2023-02-06T08:50:03.775Z,1011.23
2023-02-06T08:55:02.990Z,1011.22
2023-02-06T09:00:03.048Z,1011.24
2023-02-06T09:05:02.926Z,1011.35
2023-02-06T09:10:03.032Z,1011.39
2023-02-06T09:15:02.980Z,1011.49
2023-02-06T09:20:03.090Z,1011.52
2023-02-06T09:25:02.985Z,1011.52
2023-02-06T09:30:03.045Z,1011.55
2023-02-06T09:35:03.950Z,1011.64
2023-02-06T09:40:03.009Z,1011.69
2023-02-06T09:45:02.863Z,1011.82
2023-02-06T09:50:02.998Z,1011.87
2023-02-06T09:55:03.080Z,1011.92
2023-02-06T10:00:02.959Z,1012.02
2023-02-06T10:05:02.920Z,1012.07
2023-02-06T10:10:03.144Z,1012.11
2023-02-06T10:15:02.884Z,1012.14
2023-02-06T10:20:02.961Z,1012.17
2023-02-06T10:25:02.988Z,1012.22
2023-02-06T10:30:03.046Z,1012.23
2023-02-06T10:35:02.872Z,1012.23
2023-02-06T10:40:04.129Z,1012.27
2023-02-06T10:45:17.324Z,1012.28
2023-02-06T10:50:03.060Z,1012.37
2023-02-06T10:55:02.905Z,1012.43
2023-02-06T11:00:02.999Z,1012.5
2023-02-06T11:05:02.929Z,1012.48
2023-02-06T11:10:03.095Z,1012.58
2023-02-06T11:15:02.978Z,1012.62
2023-02-06T11:20:03.052Z,1012.67
2023-02-06T11:25:02.948Z,1012.7
2023-02-06T11:30:03.037Z,1012.8
2023-02-06T11:35:03.192Z,1012.81
2023-02-06T11:40:02.975Z,1012.85
2023-02-06T11:45:02.960Z,1012.93
2023-02-06T11:50:03.030Z,1012.91
2023-02-06T11:55:02.977Z,1013.01
2023-02-06T12:00:02.968Z,1013.07
2023-02-06T12:05:02.876Z,1013.19
2023-02-06T12:10:03.071Z,1013.2
2023-02-06T12:15:18.405Z,1013.24
2023-02-06T12:20:03.069Z,1013.2
2023-02-06T12:25:02.925Z,1013.22
2023-02-06T12:30:03.059Z,1013.22
2023-02-06T12:35:02.886Z,1013.27
2023-02-06T12:40:03.226Z,1013.24
2023-02-06T12:45:02.945Z,1013.25
2023-02-06T12:50:03.128Z,1013.27
2023-02-06T12:55:02.933Z,1013.37
2023-02-06T13:00:03.053Z,1013.36
2023-02-06T13:05:02.919Z,1013.35
2023-02-06T13:10:03.067Z,1013.34
2023-02-06T13:15:02.954Z,1013.33
2023-02-06T13:20:02.979Z,1013.37
2023-02-06T13:25:02.844Z,1013.37
2023-02-06T13:30:03.022Z,1013.37
2023-02-06T13:35:02.955Z,1013.37
2023-02-06T13:40:03.075Z,1013.41
2023-02-06T13:45:02.883Z,1013.44
2023-02-06T13:50:03.072Z,1013.44
2023-02-06T13:55:02.982Z,1013.43
2023-02-06T14:00:03.035Z,1013.44
2023-02-06T14:05:02.881Z,1013.41
2023-02-06T14:10:03.045Z,1013.45
2023-02-06T14:15:03.067Z,1013.42
2023-02-06T14:20:03.251Z,1013.42
2023-02-06T14:25:02.936Z,1013.4
2023-02-06T14:30:02.996Z,1013.4
2023-02-06T14:35:02.829Z,1013.33
2023-02-06T14:40:06.033Z,1013.35
2023-02-06T14:45:02.936Z,1013.28
2023-02-06T14:50:03.008Z,1013.18
2023-02-06T14:55:02.940Z,1013.14
2023-02-06T15:00:04.136Z,1013.09
2023-02-06T15:05:02.928Z,1013.02
2023-02-06T15:10:02.988Z,1012.97
2023-02-06T15:15:03.028Z,1012.9
2023-02-06T15:20:02.978Z,1012.9
2023-02-06T15:25:02.923Z,1012.83
2023-02-06T15:30:03.156Z,1012.85
2023-02-06T15:35:03.052Z,1012.75
2023-02-06T15:40:03.022Z,1012.66
2023-02-06T15:45:02.957Z,1012.55
2023-02-06T15:50:03.074Z,1012.57
2023-02-06T15:55:03.026Z,1012.5
2023-02-06T16:00:03.152Z,1012.39
2023-02-06T16:05:02.976Z,1012.41
2023-02-06T16:10:04.154Z,1012.41
2023-02-06T16:15:02.901Z,1012.38
2023-02-06T16:20:03.160Z,1012.31
2023-02-06T16:25:02.918Z,1012.3
2023-02-06T16:30:03.053Z,1012.22
2023-02-06T16:35:03.063Z,1012.17
2023-02-06T16:40:03.043Z,1012.08
2023-02-06T16:45:02.894Z,1011.97
2023-02-06T16:50:03.077Z,1011.99
2023-02-06T16:55:03.963Z,1011.99
2023-02-06T17:00:03.049Z,1012.0
2023-02-06T17:05:03.053Z,1012.01
2023-02-06T17:10:02.967Z,1011.94
2023-02-06T17:15:02.892Z,1011.87
2023-02-06T17:20:03.004Z,1011.82
2023-02-06T17:25:02.949Z,1011.76
2023-02-06T17:30:03.083Z,1011.69
2023-02-06T17:35:02.877Z,1011.63
2023-02-06T17:40:03.030Z,1011.59
2023-02-06T17:45:02.860Z,1011.52
2023-02-06T17:50:03.051Z,1011.5
2023-02-06T17:55:03.076Z,1011.41
2023-02-06T18:00:03.076Z,1011.32
2023-02-06T18:05:03.126Z,1011.23
2023-02-06T18:10:03.224Z,1011.11
2023-02-06T18:15:03.029Z,1010.88
2023-02-06T18:20:03.061Z,1010.83
2023-02-06T18:25:02.922Z,1010.8
2023-02-06T18:30:03.025Z,1010.67
2023-02-06T18:35:08.011Z,1010.56
2023-02-06T18:40:03.161Z,1010.45
2023-02-06T18:45:04.216Z,1010.35
2023-02-06T18:50:03.086Z,1010.28
2023-02-06T18:55:02.903Z,1010.25
2023-02-06T19:00:03.099Z,1010.23
2023-02-06T19:05:02.891Z,1010.1
2023-02-06T19:10:03.150Z,1010.01
2023-02-06T19:15:03.030Z,1009.98
2023-02-06T19:20:03.042Z,1009.88
2023-02-06T19:25:02.964Z,1009.76
2023-02-06T19:30:03.066Z,1009.69
2023-02-06T19:35:02.938Z,1009.66
2023-02-06T19:40:04.063Z,1009.6
2023-02-06T19:45:03.036Z,1009.55
2023-02-06T19:50:03.033Z,1009.47
2023-02-06T19:55:02.961Z,1009.35
2023-02-06T20:00:03.107Z,1009.35
2023-02-06T20:05:02.941Z,1009.33
2023-02-06T20:10:03.067Z,1009.29
2023-02-06T20:15:02.972Z,1009.19
2023-02-06T20:20:03.045Z,1009.12
2023-02-06T20:25:02.964Z,1009.18
2023-02-06T20:30:03.014Z,1009.11
2023-02-06T20:35:03.070Z,1009.09
2023-02-06T20:40:03.024Z,1009.09
2023-02-06T20:45:02.988Z,1009.07
2023-02-06T20:50:03.053Z,1008.98
2023-02-06T20:55:03.013Z,1008.88
2023-02-06T21:00:03.052Z,1008.88
2023-02-06T21:05:02.891Z,1008.97
2023-02-06T21:10:03.104Z,1009.0
2023-02-06T21:15:02.989Z,1008.97
2023-02-06T21:20:03.170Z,1008.98
2023-02-06T21:25:02.959Z,1008.96
2023-02-06T21:30:03.106Z,1008.95
2023-02-06T21:35:02.961Z,1008.93
2023-02-06T21:40:03.270Z,1008.9
2023-02-06T21:45:03.299Z,1008.94
2023-02-06T21:50:03.122Z,1008.97
2023-02-06T21:55:02.986Z,1008.96
2023-02-06T22:00:03.077Z,1008.95
2023-02-06T22:05:03.017Z,1008.88
2023-02-06T22:10:03.026Z,1009.0
2023-02-06T22:15:03.045Z,1009.07
2023-02-06T22:20:03.077Z,1009.17
2023-02-06T22:25:02.992Z,1009.23
2023-02-06T22:30:03.038Z,1009.35
2023-02-06T22:35:03.054Z,1009.47
2023-02-06T22:40:08.012Z,1009.54
2023-02-06T22:45:04.184Z,1009.56
2023-02-06T22:50:03.039Z,1009.64
2023-02-06T22:55:04.074Z,1009.68
2023-02-06T23:00:03.102Z,1009.73
2023-02-06T23:05:03.045Z,1009.85
2023-02-06T23:10:03.059Z,1009.81
2023-02-06T23:15:03.019Z,1009.9
2023-02-06T23:20:03.156Z,1009.96
2023-02-06T23:25:03.130Z,1010.16
2023-02-06T23:30:03.147Z,1010.2
2023-02-06T23:35:03.028Z,1010.23
2023-02-06T23:40:03.072Z,1010.28
2023-02-06T23:45:03.049Z,1010.32
2023-02-06T23:50:03.161Z,1010.27
2023-02-06T23:55:02.912Z,1010.29
